createdAt,value
2022-11-29T00:01:19.905Z,29.33
2022-11-29T00:03:46.938Z,28.33
2022-11-29T00:06:16.961Z,28.35
2022-11-29T00:08:44.271Z,28.80
2022-11-29T00:11:13.967Z,28.35
2022-11-29T00:13:40.896Z,29.55
2022-11-29T00:16:10.743Z,28.20
2022-11-29T00:18:37.679Z,30.17
2022-11-29T00:21:08.639Z,28.45
2022-11-29T00:23:36.144Z,29.10
2022-11-29T00:26:07.351Z,28.50
2022-11-29T00:28:36.115Z,29.15
2022-11-29T00:31:23.875Z,28.90
2022-11-29T00:33:51.431Z,29.00
2022-11-29T00:36:19.421Z,28.67
2022-11-29T00:38:46.186Z,30.02
2022-11-29T00:41:13.187Z,29.40
2022-11-29T00:43:40.551Z,28.50
2022-11-29T00:46:08.623Z,29.15
2022-11-29T00:48:35.937Z,28.73
2022-11-29T00:51:03.898Z,29.52
2022-11-29T00:53:31.114Z,30.25
2022-11-29T00:55:57.932Z,29.50
2022-11-29T00:58:24.911Z,30.23
2022-11-29T01:00:53.259Z,30.17
2022-11-29T01:03:20.346Z,30.15
2022-11-29T01:05:47.832Z,29.58
2022-11-29T01:08:15.525Z,29.38
2022-11-29T01:10:42.181Z,29.70
2022-11-29T01:13:09.912Z,28.85
2022-11-29T01:15:37.079Z,31.13
2022-11-29T01:18:03.856Z,29.30
2022-11-29T01:20:30.502Z,30.75
2022-11-29T01:22:57.207Z,30.38
2022-11-29T01:25:23.871Z,30.98
2022-11-29T01:27:50.570Z,29.45
2022-11-29T01:30:17.418Z,30.63
2022-11-29T01:32:44.072Z,29.65
2022-11-29T01:35:10.830Z,29.77
2022-11-29T01:37:37.465Z,29.88
2022-11-29T01:40:04.590Z,29.95
2022-11-29T01:42:31.218Z,30.00
2022-11-29T01:45:06.293Z,29.08
2022-11-29T01:47:33.821Z,29.67
2022-11-29T01:50:02.544Z,28.95
2022-11-29T01:52:32.786Z,31.63
2022-11-29T01:55:03.887Z,30.20
2022-11-29T01:57:32.873Z,29.77
2022-11-29T02:00:06.511Z,32.20
2022-11-29T02:02:38.260Z,30.75
2022-11-29T02:05:05.431Z,29.83
2022-11-29T02:07:32.253Z,29.98
2022-11-29T02:09:59.224Z,30.13
2022-11-29T02:12:31.859Z,28.52
2022-11-29T02:15:25.502Z,31.00
2022-11-29T02:18:29.541Z,30.52
2022-11-29T02:21:16.248Z,30.08
2022-11-29T02:23:49.067Z,30.17
2022-11-29T02:26:34.264Z,30.80
2022-11-29T02:29:12.964Z,29.85
2022-11-29T02:32:25.079Z,29.63
2022-11-29T02:35:16.797Z,30.35
2022-11-29T02:37:52.434Z,30.52
2022-11-29T02:40:35.004Z,30.15
2022-11-29T02:43:16.505Z,30.80
2022-11-29T02:46:03.244Z,30.23
2022-11-29T02:48:48.540Z,30.10
2022-11-29T02:51:27.620Z,30.38
2022-11-29T02:54:00.086Z,31.13
2022-11-29T02:56:34.547Z,31.67
2022-11-29T02:59:20.826Z,29.00
2022-11-29T03:01:50.578Z,30.77
2022-11-29T03:04:35.819Z,31.08
2022-11-29T03:07:25.228Z,29.20
2022-11-29T03:10:03.079Z,30.13
2022-11-29T03:12:40.211Z,29.23
2022-11-29T03:15:28.610Z,29.50
2022-11-29T03:18:08.013Z,29.83
2022-11-29T03:20:53.250Z,29.10
2022-11-29T03:23:29.742Z,27.95
2022-11-29T03:26:05.353Z,30.10
2022-11-29T03:28:37.830Z,30.33
2022-11-29T03:31:25.539Z,30.10
2022-11-29T03:34:09.321Z,29.85
2022-11-29T03:36:43.361Z,30.65
2022-11-29T03:39:34.013Z,29.65
2022-11-29T03:42:05.858Z,29.77
2022-11-29T03:44:40.365Z,30.75
2022-11-29T03:47:13.106Z,29.38
2022-11-29T03:50:00.104Z,30.65
2022-11-29T03:52:42.424Z,29.60
2022-11-29T03:55:22.222Z,29.73
2022-11-29T03:57:48.835Z,29.13
2022-11-29T04:00:16.676Z,29.38
2022-11-29T04:03:19.039Z,29.00
2022-11-29T04:05:48.459Z,30.38
2022-11-29T04:08:39.191Z,29.67
2022-11-29T04:11:27.332Z,29.83
2022-11-29T04:14:31.870Z,29.65
2022-11-29T04:17:33.930Z,28.02
2022-11-29T04:20:00.512Z,29.50
2022-11-29T04:22:52.308Z,30.90
2022-11-29T04:25:43.812Z,28.77
2022-11-29T04:28:27.894Z,29.60
2022-11-29T04:31:24.907Z,29.02
2022-11-29T04:34:00.312Z,29.38
2022-11-29T04:36:42.027Z,29.35
2022-11-29T04:39:52.434Z,29.17
2022-11-29T04:43:00.839Z,28.80
2022-11-29T04:45:48.685Z,28.85
2022-11-29T04:48:34.043Z,28.92
2022-11-29T04:51:22.005Z,30.00
2022-11-29T04:54:09.148Z,28.48
2022-11-29T04:56:46.963Z,29.52
2022-11-29T04:59:19.324Z,29.83
2022-11-29T05:02:14.632Z,28.05
2022-11-29T05:04:47.347Z,28.88
2022-11-29T05:07:40.674Z,29.17
2022-11-29T05:10:22.449Z,27.25
2022-11-29T05:12:58.254Z,28.38
2022-11-29T05:15:43.097Z,29.45
2022-11-29T05:18:26.195Z,28.15
2022-11-29T05:21:09.067Z,28.13
2022-11-29T05:24:12.713Z,27.80
2022-11-29T05:26:55.181Z,28.38
2022-11-29T05:29:40.215Z,28.85
2022-11-29T05:32:30.031Z,28.63
2022-11-29T05:35:38.440Z,28.52
2022-11-29T05:38:19.949Z,28.77
2022-11-29T05:40:54.132Z,27.77
2022-11-29T05:46:12.751Z,26.38
2022-11-29T05:49:07.049Z,27.92
2022-11-29T05:52:21.213Z,28.05
2022-11-29T05:55:16.116Z,28.45
2022-11-29T06:00:58.702Z,27.58
2022-11-29T06:03:51.314Z,28.50
2022-11-29T06:06:44.347Z,27.90
2022-11-29T06:09:37.587Z,27.63
2022-11-29T06:12:14.892Z,27.02
2022-11-29T06:15:01.287Z,27.48
2022-11-29T06:18:01.580Z,27.77
2022-11-29T06:20:58.550Z,28.15
2022-11-29T06:24:06.906Z,28.40
2022-11-29T06:26:44.855Z,28.95
2022-11-29T06:29:34.682Z,28.05
2022-11-29T06:32:10.140Z,28.50
2022-11-29T06:34:49.054Z,28.98
2022-11-29T06:37:22.971Z,27.60
2022-11-29T06:39:49.948Z,28.35
2022-11-29T06:42:16.695Z,29.00
2022-11-29T06:44:44.032Z,28.73
2022-11-29T06:47:37.727Z,28.42
2022-11-29T06:50:13.643Z,29.48
2022-11-29T06:53:07.342Z,28.65
2022-11-29T06:55:47.234Z,28.02
2022-11-29T06:58:40.541Z,28.55
2022-11-29T07:01:25.935Z,28.10
2022-11-29T07:04:31.275Z,27.40
2022-11-29T07:06:58.208Z,29.05
2022-11-29T07:09:30.411Z,27.98
2022-11-29T07:11:57.297Z,29.00
2022-11-29T07:14:24.139Z,27.20
2022-11-29T07:16:57.476Z,29.58
2022-11-29T07:19:36.772Z,29.55
2022-11-29T07:22:29.649Z,29.13
2022-11-29T07:25:08.069Z,29.50
2022-11-29T07:27:49.862Z,28.63
2022-11-29T07:30:20.720Z,28.23
2022-11-29T07:33:02.875Z,27.92
2022-11-29T07:35:37.194Z,29.17
2022-11-29T07:38:29.394Z,28.83
2022-11-29T07:41:13.272Z,28.30
2022-11-29T07:43:49.933Z,28.98
2022-11-29T07:46:16.600Z,27.98
2022-11-29T07:48:43.384Z,27.90
2022-11-29T07:51:10.994Z,28.40
2022-11-29T07:53:42.407Z,28.23
2022-11-29T07:56:12.543Z,28.20
2022-11-29T07:58:39.459Z,28.95
2022-11-29T08:01:06.390Z,28.50
2022-11-29T08:03:35.333Z,28.60
2022-11-29T08:06:02.793Z,28.90
2022-11-29T08:08:29.428Z,27.85
2022-11-29T08:10:56.169Z,28.27
2022-11-29T08:13:22.911Z,28.58
2022-11-29T08:15:49.695Z,29.02
2022-11-29T08:18:16.691Z,27.80
2022-11-29T08:20:43.684Z,29.33
2022-11-29T08:23:13.100Z,27.52
2022-11-29T08:25:40.085Z,28.90
2022-11-29T08:28:06.775Z,27.60
2022-11-29T08:30:33.468Z,29.38
2022-11-29T08:33:00.115Z,29.50
2022-11-29T08:35:26.924Z,30.52
2022-11-29T08:37:54.898Z,29.55
2022-11-29T08:40:21.864Z,29.73
2022-11-29T08:42:48.592Z,30.02
2022-11-29T08:45:15.289Z,29.55
2022-11-29T08:47:42.897Z,28.88
2022-11-29T08:50:18.021Z,29.98
2022-11-29T08:53:05.529Z,29.52
2022-11-29T08:55:37.628Z,28.75
2022-11-29T08:58:07.116Z,30.23
2022-11-29T09:00:34.632Z,29.25
2022-11-29T09:03:24.813Z,28.48
2022-11-29T09:05:52.238Z,28.77
2022-11-29T09:08:19.387Z,28.50
2022-11-29T09:10:47.900Z,29.27
2022-11-29T09:13:14.842Z,29.35
2022-11-29T09:15:43.454Z,28.73
2022-11-29T09:18:10.354Z,28.73
2022-11-29T09:20:37.173Z,29.73
2022-11-29T09:23:04.046Z,29.55
2022-11-29T09:25:30.736Z,28.50
2022-11-29T09:28:03.488Z,28.77
2022-11-29T09:30:38.118Z,29.00
2022-11-29T09:33:05.105Z,28.90
2022-11-29T09:35:32.393Z,28.52
2022-11-29T09:37:59.109Z,30.08
2022-11-29T09:40:42.296Z,31.10
2022-11-29T09:43:29.077Z,29.17
2022-11-29T09:46:05.683Z,29.60
2022-11-29T09:48:55.422Z,29.25
2022-11-29T09:51:55.079Z,30.23
2022-11-29T09:54:49.668Z,29.70
2022-11-29T09:57:17.537Z,29.15
2022-11-29T09:59:49.519Z,29.75
2022-11-29T10:02:32.882Z,28.80
2022-11-29T10:05:09.684Z,29.27
2022-11-29T10:07:53.034Z,29.17
2022-11-29T10:10:28.084Z,29.00
2022-11-29T10:13:24.026Z,29.73
2022-11-29T10:15:57.660Z,30.10
2022-11-29T10:19:01.811Z,29.80
2022-11-29T10:21:35.123Z,29.17
2022-11-29T10:24:07.507Z,29.20
2022-11-29T10:26:35.439Z,30.75
2022-11-29T10:29:02.576Z,30.90
2022-11-29T10:31:36.899Z,30.95
2022-11-29T10:34:18.888Z,30.58
2022-11-29T10:36:47.647Z,28.50
2022-11-29T10:39:25.776Z,29.45
2022-11-29T10:41:56.655Z,31.45
2022-11-29T10:44:24.792Z,29.58
2022-11-29T10:46:52.802Z,30.05
2022-11-29T10:49:24.870Z,31.92
2022-11-29T10:51:51.584Z,30.77
2022-11-29T10:54:34.507Z,30.23
2022-11-29T10:57:01.891Z,29.20
2022-11-29T10:59:30.676Z,30.38
2022-11-29T11:01:57.898Z,31.30
2022-11-29T11:04:36.660Z,31.75
2022-11-29T11:07:06.340Z,30.80
2022-11-29T11:09:41.566Z,28.85
2022-11-29T11:12:20.769Z,30.13
2022-11-29T11:14:47.779Z,30.02
2022-11-29T11:17:32.692Z,31.25
2022-11-29T11:20:02.416Z,30.13
2022-11-29T11:22:31.220Z,30.30
2022-11-29T11:25:24.683Z,30.95
2022-11-29T11:27:51.413Z,29.95
2022-11-29T11:30:27.128Z,31.55
2022-11-29T11:33:34.057Z,31.80
2022-11-29T11:36:00.718Z,31.20
2022-11-29T11:38:27.632Z,30.58
2022-11-29T11:41:45.568Z,30.95
2022-11-29T11:44:47.254Z,30.35
2022-11-29T11:47:18.527Z,29.80
2022-11-29T11:50:03.372Z,29.13
2022-11-29T11:52:46.150Z,31.38
2022-11-29T11:55:43.453Z,30.02
2022-11-29T11:58:12.660Z,29.55
2022-11-29T12:01:06.021Z,29.45
2022-11-29T12:03:51.576Z,29.02
2022-11-29T12:06:48.726Z,29.20
2022-11-29T12:09:40.628Z,29.42
2022-11-29T12:12:37.670Z,29.63
2022-11-29T12:15:08.958Z,29.63
2022-11-29T12:18:06.616Z,29.35
2022-11-29T12:20:44.267Z,30.40
2022-11-29T12:23:16.814Z,29.98
2022-11-29T12:25:48.884Z,29.63
2022-11-29T12:28:20.603Z,30.45
2022-11-29T12:30:59.892Z,29.58
2022-11-29T12:33:26.563Z,30.15
2022-11-29T12:36:02.143Z,29.92
2022-11-29T12:38:34.643Z,29.02
2022-11-29T12:41:07.157Z,30.20
2022-11-29T12:43:59.883Z,30.27
2022-11-29T12:46:28.349Z,30.92
2022-11-29T12:49:09.960Z,28.30
2022-11-29T12:52:13.470Z,30.83
2022-11-29T12:55:21.245Z,31.48
2022-11-29T12:58:25.431Z,30.17
2022-11-29T13:01:16.942Z,30.17
2022-11-29T13:03:54.104Z,28.60
2022-11-29T13:06:32.611Z,29.27
2022-11-29T13:09:17.281Z,30.52
2022-11-29T13:11:58.107Z,30.23
2022-11-29T13:14:44.251Z,29.55
2022-11-29T13:17:35.013Z,30.48
2022-11-29T13:20:19.674Z,31.50
2022-11-29T13:23:18.043Z,29.83
2022-11-29T13:25:50.640Z,30.13
2022-11-29T13:28:37.146Z,28.50
2022-11-29T13:31:09.408Z,30.10
2022-11-29T13:34:01.570Z,30.05
2022-11-29T13:36:43.672Z,29.73
2022-11-29T13:39:35.832Z,29.90
2022-11-29T13:42:20.083Z,29.25
2022-11-29T13:44:50.373Z,30.23
2022-11-29T13:47:18.963Z,30.55
2022-11-29T13:50:03.632Z,28.92
2022-11-29T13:52:43.424Z,29.70
2022-11-29T13:55:12.863Z,29.42
2022-11-29T13:58:15.541Z,30.65
2022-11-29T14:00:44.038Z,29.08
2022-11-29T14:03:28.963Z,29.55
2022-11-29T14:06:01.825Z,31.85
2022-11-29T14:11:44.701Z,29.45
2022-11-29T14:14:24.534Z,29.75
2022-11-29T14:16:57.798Z,29.85
2022-11-29T14:19:33.703Z,31.13
2022-11-29T14:22:06.889Z,30.25
2022-11-29T14:24:36.346Z,31.40
2022-11-29T14:27:23.326Z,29.98
2022-11-29T14:29:53.916Z,30.48
2022-11-29T14:32:25.473Z,30.05
2022-11-29T14:35:06.548Z,31.73
2022-11-29T14:37:52.011Z,30.23
2022-11-29T14:40:44.839Z,29.35
2022-11-29T14:43:37.098Z,31.05
2022-11-29T14:46:16.021Z,30.92
2022-11-29T14:48:56.560Z,30.20
2022-11-29T14:51:26.366Z,30.25
2022-11-29T14:54:13.048Z,28.85
2022-11-29T14:56:42.690Z,29.95
2022-11-29T14:59:43.527Z,32.97
2022-11-29T15:02:37.830Z,30.63
2022-11-29T15:05:20.714Z,31.15
2022-11-29T15:08:01.668Z,30.70
2022-11-29T15:10:33.466Z,32.35
2022-11-29T15:13:01.177Z,30.52
2022-11-29T15:15:38.561Z,29.80
2022-11-29T15:18:17.541Z,29.05
2022-11-29T15:20:54.881Z,29.52
2022-11-29T15:23:21.759Z,29.52
2022-11-29T15:25:51.508Z,30.80
2022-11-29T15:28:24.730Z,29.75
2022-11-29T15:31:11.107Z,29.38
2022-11-29T15:33:42.017Z,31.50
2022-11-29T15:36:17.818Z,33.75
2022-11-29T15:38:47.626Z,31.48
2022-11-29T15:41:31.780Z,32.10
2022-11-29T15:44:00.540Z,31.83
2022-11-29T15:46:29.226Z,32.20
2022-11-29T15:49:22.260Z,32.25
2022-11-29T15:51:56.720Z,31.70
2022-11-29T15:54:37.946Z,33.38
2022-11-29T15:57:15.455Z,36.53
2022-11-29T16:00:03.788Z,35.97
2022-11-29T16:02:45.777Z,35.22
2022-11-29T16:05:42.129Z,35.97
2022-11-29T16:08:15.979Z,36.72
2022-11-29T16:10:49.362Z,36.92
2022-11-29T16:13:36.907Z,39.03
2022-11-29T16:16:16.249Z,36.35
2022-11-29T16:18:46.479Z,37.70
2022-11-29T16:21:28.813Z,45.92
2022-11-29T16:23:56.684Z,43.85
2022-11-29T16:26:26.223Z,57.15
2022-11-29T16:28:56.435Z,52.30
2022-11-29T16:31:34.239Z,44.85
2022-11-29T16:34:27.988Z,39.05
2022-11-29T16:37:01.131Z,37.55
2022-11-29T16:39:28.716Z,35.50
2022-11-29T16:42:14.523Z,35.78
2022-11-29T16:44:41.380Z,38.10
2022-11-29T16:47:29.581Z,37.88
2022-11-29T16:50:20.645Z,36.72
2022-11-29T16:52:52.000Z,37.97
2022-11-29T16:57:48.931Z,37.38
2022-11-29T17:00:26.893Z,38.10
2022-11-29T17:02:53.545Z,38.38
2022-11-29T17:05:20.265Z,38.08
2022-11-29T17:07:47.772Z,36.92
2022-11-29T17:10:18.511Z,39.08
2022-11-29T17:12:48.219Z,39.40
2022-11-29T17:15:15.555Z,38.75
2022-11-29T17:17:43.543Z,38.08
2022-11-29T17:20:12.713Z,39.50
2022-11-29T17:22:39.593Z,38.50
2022-11-29T17:25:07.057Z,38.72
2022-11-29T17:27:33.715Z,37.40
2022-11-29T17:30:00.447Z,38.50
2022-11-29T17:32:27.373Z,38.35
2022-11-29T17:34:54.178Z,36.95
2022-11-29T17:37:20.853Z,37.78
2022-11-29T17:39:48.997Z,37.38
2022-11-29T17:42:15.823Z,39.17
2022-11-29T17:44:42.523Z,38.60
2022-11-29T17:47:09.215Z,38.10
2022-11-29T17:49:35.846Z,37.20
2022-11-29T17:52:02.679Z,38.78
2022-11-29T17:54:32.851Z,37.63
2022-11-29T17:57:00.737Z,49.47
2022-11-29T17:59:27.469Z,39.08
2022-11-29T18:01:54.276Z,39.08
2022-11-29T18:04:21.074Z,36.92
2022-11-29T18:06:49.675Z,38.20
2022-11-29T18:09:17.373Z,38.35
2022-11-29T18:11:48.708Z,38.42
2022-11-29T18:14:28.159Z,38.00
2022-11-29T18:16:55.259Z,37.55
2022-11-29T18:19:23.141Z,38.03
2022-11-29T18:21:50.641Z,37.70
2022-11-29T18:24:17.845Z,38.10
2022-11-29T18:26:44.822Z,38.63
2022-11-29T18:29:11.498Z,37.58
2022-11-29T18:31:40.936Z,37.67
2022-11-29T18:34:11.424Z,38.45
2022-11-29T18:36:42.916Z,38.58
2022-11-29T18:39:15.364Z,40.13
2022-11-29T18:41:43.881Z,40.33
2022-11-29T18:44:13.650Z,38.83
2022-11-29T18:46:43.036Z,41.78
2022-11-29T18:49:12.088Z,41.08
2022-11-29T18:51:39.428Z,50.95
2022-11-29T18:54:06.547Z,41.72
2022-11-29T18:56:34.804Z,40.65
2022-11-29T18:59:04.171Z,40.50
2022-11-29T19:01:34.605Z,40.90
2022-11-29T19:04:01.760Z,41.92
2022-11-29T19:06:38.615Z,42.53
2022-11-29T19:09:07.828Z,43.38
2022-11-29T19:11:34.942Z,41.88
2022-11-29T19:14:04.842Z,42.00
2022-11-29T19:16:33.535Z,43.55
2022-11-29T19:19:01.242Z,40.85
2022-11-29T19:21:31.128Z,42.30
2022-11-29T19:24:00.223Z,43.47
2022-11-29T19:26:28.776Z,43.20
2022-11-29T19:28:56.184Z,42.42
2022-11-29T19:31:25.117Z,42.58
2022-11-29T19:33:52.630Z,42.72
2022-11-29T19:36:25.528Z,42.75
2022-11-29T19:38:54.285Z,42.85
2022-11-29T19:41:24.497Z,42.47
2022-11-29T19:43:53.086Z,42.88
2022-11-29T19:46:25.163Z,43.60
2022-11-29T19:48:52.820Z,42.85
2022-11-29T19:51:20.206Z,42.75
2022-11-29T19:53:47.651Z,44.22
2022-11-29T19:56:16.743Z,42.67
2022-11-29T19:58:44.312Z,42.63
2022-11-29T20:01:16.501Z,42.35
2022-11-29T20:03:44.830Z,41.58
2022-11-29T20:06:13.597Z,42.95
2022-11-29T20:08:41.203Z,43.63
2022-11-29T20:11:12.382Z,43.40
2022-11-29T20:13:41.020Z,44.97
2022-11-29T20:16:10.919Z,43.17
2022-11-29T20:18:42.605Z,42.28
2022-11-29T20:21:15.787Z,43.17
2022-11-29T20:23:43.601Z,42.35
2022-11-29T20:26:18.180Z,43.72
2022-11-29T20:28:45.744Z,43.63
2022-11-29T20:31:15.831Z,43.78
2022-11-29T20:33:44.338Z,43.88
2022-11-29T20:36:26.030Z,42.20
2022-11-29T20:39:07.501Z,42.75
2022-11-29T20:41:55.660Z,41.67
2022-11-29T20:44:51.408Z,43.33
2022-11-29T20:47:23.340Z,43.45
2022-11-29T20:49:50.566Z,44.92
2022-11-29T20:52:49.377Z,42.72
2022-11-29T20:55:16.108Z,44.47
2022-11-29T20:57:42.821Z,43.58
2022-11-29T21:00:11.891Z,43.38
2022-11-29T21:02:39.006Z,45.13
2022-11-29T21:05:06.302Z,43.63
2022-11-29T21:07:32.985Z,43.47
2022-11-29T21:10:01.515Z,45.97
2022-11-29T21:12:30.177Z,43.97
2022-11-29T21:14:57.828Z,44.35
2022-11-29T21:17:28.770Z,44.67
2022-11-29T21:19:58.773Z,43.80
2022-11-29T21:22:28.820Z,44.28
2022-11-29T21:25:26.476Z,44.70
2022-11-29T21:27:55.044Z,45.20
2022-11-29T21:30:23.903Z,45.92
2022-11-29T21:32:51.191Z,46.08
2022-11-29T21:35:18.263Z,44.88
2022-11-29T21:37:45.661Z,46.35
2022-11-29T21:40:14.135Z,45.03
2022-11-29T21:42:41.079Z,45.67
2022-11-29T21:45:14.825Z,45.88
2022-11-29T21:47:42.718Z,44.88
2022-11-29T21:50:09.838Z,45.55
2022-11-29T21:52:36.513Z,43.60
2022-11-29T21:55:03.883Z,45.83
2022-11-29T21:57:30.516Z,44.92
2022-11-29T21:59:57.174Z,44.20
2022-11-29T22:02:23.924Z,44.08
2022-11-29T22:04:50.665Z,45.25
2022-11-29T22:07:17.472Z,45.13
2022-11-29T22:09:44.185Z,44.05
2022-11-29T22:12:32.469Z,46.35
2022-11-29T22:14:57.494Z,42.75
2022-11-29T22:17:24.163Z,45.58
2022-11-29T22:19:50.877Z,44.40
2022-11-29T22:22:17.590Z,44.25
2022-11-29T22:24:44.418Z,45.63
2022-11-29T22:27:11.242Z,45.97
2022-11-29T22:29:37.840Z,44.67
2022-11-29T22:32:04.670Z,42.97
2022-11-29T22:34:31.307Z,44.95
2022-11-29T22:36:58.015Z,43.92
2022-11-29T22:39:24.763Z,44.00
2022-11-29T22:41:54.701Z,42.92
2022-11-29T22:44:21.807Z,43.65
2022-11-29T22:46:48.598Z,44.53
2022-11-29T22:49:15.347Z,44.42
2022-11-29T22:51:42.458Z,44.30
2022-11-29T22:54:11.614Z,41.75
2022-11-29T22:56:40.232Z,46.22
2022-11-29T22:59:07.647Z,43.78
2022-11-29T23:01:36.402Z,45.17
2022-11-29T23:04:05.980Z,45.63
2022-11-29T23:06:52.890Z,44.45
2022-11-29T23:09:22.339Z,43.88
2022-11-29T23:11:55.616Z,44.67
2022-11-29T23:14:22.973Z,45.70
2022-11-29T23:16:49.792Z,45.25
2022-11-29T23:19:17.244Z,45.78
2022-11-29T23:21:45.691Z,45.28
2022-11-29T23:24:13.234Z,44.78
2022-11-29T23:26:42.664Z,45.42
2022-11-29T23:29:12.594Z,44.15
2022-11-29T23:31:39.712Z,45.20
2022-11-29T23:34:06.422Z,45.72
2022-11-29T23:36:33.329Z,45.90
2022-11-29T23:39:00.463Z,47.90
2022-11-29T23:41:27.106Z,46.05
2022-11-29T23:43:53.740Z,45.58
2022-11-29T23:46:23.259Z,45.33
2022-11-29T23:48:50.322Z,47.60
2022-11-29T23:51:18.172Z,48.33
2022-11-29T23:53:46.587Z,48.17
2022-11-29T23:56:16.125Z,46.40
2022-11-29T23:58:43.887Z,45.85
